createdAt,value
2023-02-17T00:03:14.754Z,16.07
2023-02-17T00:13:16.299Z,16.31
2023-02-17T00:23:17.894Z,16.53
2023-02-17T00:33:19.315Z,16.67
2023-02-17T00:43:20.695Z,16.82
2023-02-17T00:53:22.221Z,16.97
2023-02-17T01:03:23.839Z,17.09
2023-02-17T01:13:25.413Z,17.16
2023-02-17T01:23:26.958Z,17.17
2023-02-17T01:33:28.361Z,17.10
2023-02-17T01:43:29.767Z,17.04
2023-02-17T01:53:35.301Z,16.95
2023-02-17T02:03:37.558Z,16.87
2023-02-17T02:13:38.965Z,16.80
2023-02-17T02:23:50.305Z,16.74
2023-02-17T02:33:53.756Z,16.67
2023-02-17T02:43:55.403Z,16.64
2023-02-17T02:54:06.837Z,16.61
2023-02-17T03:04:13.004Z,16.56
2023-02-17T03:14:16.275Z,16.55
2023-02-17T03:24:17.775Z,16.53
2023-02-17T03:34:19.273Z,16.51
2023-02-17T03:44:20.649Z,16.49
2023-02-17T03:54:22.055Z,16.46
2023-02-17T04:04:23.553Z,16.43
2023-02-17T04:14:24.949Z,16.42
2023-02-17T04:24:26.359Z,16.40
2023-02-17T04:34:27.746Z,16.36
2023-02-17T04:44:29.128Z,16.34
2023-02-17T04:54:30.648Z,16.33
2023-02-17T05:04:32.072Z,16.29
2023-02-17T05:14:33.489Z,16.43
2023-02-17T05:24:35.033Z,16.59
2023-02-17T05:34:36.428Z,16.80
2023-02-17T05:44:37.808Z,17.03
2023-02-17T05:54:39.239Z,17.22
2023-02-17T06:04:40.674Z,17.40
2023-02-17T06:14:43.408Z,17.45
2023-02-17T06:24:45.058Z,17.46
2023-02-17T06:34:46.442Z,17.45
2023-02-17T06:44:48.327Z,17.41
2023-02-17T06:54:49.903Z,17.41
2023-02-17T07:04:51.303Z,17.50
2023-02-17T07:14:52.741Z,17.58
2023-02-17T07:24:54.172Z,17.67
2023-02-17T07:34:55.717Z,17.70
2023-02-17T07:44:57.651Z,17.70
2023-02-17T07:54:59.178Z,17.67
2023-02-17T08:05:00.700Z,17.73
2023-02-17T08:15:02.260Z,17.75
2023-02-17T08:25:06.113Z,17.83
2023-02-17T08:35:07.968Z,17.87
2023-02-17T08:45:09.359Z,17.88
2023-02-17T08:55:11.152Z,17.88
2023-02-17T09:05:13.663Z,17.94
2023-02-17T09:15:15.112Z,18.01
2023-02-17T09:25:16.529Z,18.11
2023-02-17T09:35:18.181Z,18.14
2023-02-17T09:45:22.259Z,18.22
2023-02-17T09:55:24.897Z,18.28
2023-02-17T10:05:29.408Z,18.30
2023-02-17T10:15:35.131Z,18.33
2023-02-17T10:26:06.212Z,18.43
2023-02-17T10:36:15.378Z,18.46
2023-02-17T10:46:17.982Z,18.56
2023-02-17T10:56:44.183Z,18.62
2023-02-17T11:06:52.776Z,18.60
2023-02-17T11:17:14.342Z,18.56
2023-02-17T11:27:15.723Z,18.60
2023-02-17T11:37:23.722Z,18.63
2023-02-17T11:47:49.543Z,18.66
2023-02-17T11:57:58.285Z,18.68
2023-02-17T12:08:30.629Z,18.72
2023-02-17T12:19:02.271Z,18.74
2023-02-17T12:29:09.743Z,18.70
2023-02-17T12:39:12.798Z,18.71
2023-02-17T12:49:19.308Z,18.73
2023-02-17T12:59:39.807Z,18.79
2023-02-17T13:09:41.387Z,18.80
2023-02-17T13:19:42.793Z,18.77
2023-02-17T13:29:44.318Z,18.70
2023-02-17T13:39:45.736Z,18.66
2023-02-17T13:49:54.391Z,18.61
2023-02-17T14:00:25.282Z,18.56
2023-02-17T14:10:26.865Z,18.50
2023-02-17T14:20:34.817Z,18.42
2023-02-17T14:30:38.234Z,18.38
2023-02-17T14:40:40.299Z,18.34
2023-02-17T14:50:44.677Z,18.27
2023-02-17T15:00:46.693Z,18.21
2023-02-17T15:10:48.725Z,18.14
2023-02-17T15:20:50.557Z,18.10
2023-02-17T15:30:54.444Z,18.06
2023-02-17T15:40:58.765Z,18.00
2023-02-17T15:51:00.206Z,17.94
2023-02-17T16:01:01.992Z,17.89
2023-02-17T16:11:03.398Z,17.83
2023-02-17T16:21:04.830Z,17.81
2023-02-17T16:31:06.221Z,17.76
2023-02-17T16:41:11.312Z,17.71
2023-02-17T16:51:12.732Z,17.65
2023-02-17T17:01:14.151Z,17.58
2023-02-17T17:11:16.687Z,17.53
2023-02-17T17:21:18.517Z,17.47
2023-02-17T17:31:20.989Z,17.40
2023-02-17T17:41:23.162Z,17.38
2023-02-17T17:51:24.790Z,17.34
2023-02-17T18:01:26.270Z,17.32
2023-02-17T18:11:27.934Z,17.29
2023-02-17T18:21:29.331Z,17.27
2023-02-17T18:31:30.854Z,17.25
2023-02-17T18:41:33.184Z,17.26
2023-02-17T18:51:34.624Z,17.24
2023-02-17T19:01:38.404Z,17.25
2023-02-17T19:11:39.947Z,17.20
2023-02-17T19:21:41.347Z,17.21
2023-02-17T19:31:42.811Z,17.18
2023-02-17T19:41:44.416Z,17.20
2023-02-17T19:51:45.979Z,17.17
2023-02-17T20:01:47.417Z,17.16
2023-02-17T20:11:49.332Z,17.15
2023-02-17T20:21:50.765Z,17.12
2023-02-17T20:31:52.256Z,17.09
2023-02-17T20:41:54.505Z,17.06
2023-02-17T20:51:55.976Z,17.03
2023-02-17T21:01:57.484Z,17.01
2023-02-17T21:11:59.483Z,16.98
2023-02-17T21:22:01.002Z,16.95
2023-02-17T21:32:02.473Z,16.92
2023-02-17T21:42:04.110Z,16.91
2023-02-17T21:52:05.667Z,16.87
2023-02-17T22:02:07.284Z,16.86
2023-02-17T22:12:08.833Z,16.84
2023-02-17T22:22:10.759Z,16.83
2023-02-17T22:32:12.324Z,16.85
2023-02-17T22:42:13.737Z,16.81
2023-02-17T22:52:15.142Z,16.81
2023-02-17T23:02:16.544Z,16.80
2023-02-17T23:12:17.929Z,16.81
2023-02-17T23:22:19.345Z,16.80
2023-02-17T23:32:20.728Z,16.76
2023-02-17T23:42:22.113Z,16.77
2023-02-17T23:52:23.637Z,16.76
